Time;durP1;ratioP1;P1;durP2;ratioP2;P2;SDS_P1;SDS_P2;PMS_P1;PMS_P2;Temp;Humidity;BMP_temperature;BMP_pressure;BME280_temperature;BME280_humidity;BME280_pressure;Samples;Min_cycle;Max_cycle;Signal;HPM_P1;HPM_P2
2023/05/20 00:02:04;;;;;;;5.20;2.72;;;16.60;61.80;;;;;;5100366;27;20023;-84
2023/05/20 00:04:30;;;;;;;6.38;2.78;;;16.60;62.00;;;;;;5117264;27;20023;-84
2023/05/20 00:06:56;;;;;;;4.18;2.95;;;16.60;62.20;;;;;;5117337;27;20027;-84
2023/05/20 00:09:21;;;;;;;9.13;3.38;;;16.60;62.40;;;;;;5116828;27;20404;-84
2023/05/20 00:11:47;;;;;;;7.53;3.13;;;16.50;62.50;;;;;;5100080;27;20519;-84
2023/05/20 00:14:13;;;;;;;5.88;2.88;;;16.60;62.70;;;;;;5099965;27;20038;-84
2023/05/20 00:16:38;;;;;;;9.55;3.10;;;16.50;62.70;;;;;;5117141;27;20034;-84
2023/05/20 00:19:04;;;;;;;4.47;2.55;;;16.50;62.90;;;;;;5099951;27;20035;-84
2023/05/20 00:21:30;;;;;;;6.60;3.00;;;16.50;63.20;;;;;;5100045;27;20369;-84
2023/05/20 00:23:56;;;;;;;5.68;3.20;;;16.50;63.40;;;;;;5116982;27;20192;-84
2023/05/20 00:26:22;;;;;;;6.35;2.83;;;16.50;63.50;;;;;;5134094;27;20038;-84
2023/05/20 00:28:48;;;;;;;5.85;2.95;;;16.40;63.50;;;;;;5116770;27;20023;-83
2023/05/20 00:31:13;;;;;;;5.95;2.72;;;16.40;63.70;;;;;;5116685;27;20468;-84
2023/05/20 00:33:39;;;;;;;5.22;2.92;;;16.40;63.80;;;;;;5133992;27;20051;-84
2023/05/20 00:36:05;;;;;;;8.52;2.85;;;16.40;64.00;;;;;;5099764;27;20023;-84
2023/05/20 00:38:32;;;;;;;6.38;3.03;;;16.30;64.20;;;;;;5099820;27;20459;-84
2023/05/20 00:40:58;;;;;;;5.90;3.58;;;16.30;64.20;;;;;;5133707;27;20046;-84
2023/05/20 00:43:25;;;;;;;5.70;2.78;;;16.30;64.30;;;;;;5116608;27;20468;-84
2023/05/20 00:45:52;;;;;;;5.90;2.90;;;16.20;64.50;;;;;;5133631;27;20022;-84
2023/05/20 00:48:17;;;;;;;5.53;2.50;;;16.20;64.60;;;;;;5116471;27;20494;-84
2023/05/20 00:50:43;;;;;;;6.25;3.05;;;16.20;64.70;;;;;;5115818;27;20027;-84
2023/05/20 00:53:09;;;;;;;6.63;2.90;;;16.20;64.70;;;;;;5116208;27;20026;-84
2023/05/20 00:55:35;;;;;;;6.82;2.97;;;16.20;65.00;;;;;;5116513;27;20468;-84
2023/05/20 00:58:01;;;;;;;7.10;3.00;;;16.20;65.10;;;;;;5116268;27;20551;-83
2023/05/20 01:00:26;;;;;;;4.75;2.90;;;16.10;65.10;;;;;;5116296;27;20024;-84
2023/05/20 01:02:54;;;;;;;8.27;3.90;;;16.10;65.30;;;;;;5099311;27;20027;-84
2023/05/20 01:05:20;;;;;;;8.38;2.83;;;16.10;65.50;;;;;;5116406;27;20023;-84
2023/05/20 01:07:45;;;;;;;6.72;3.25;;;16.10;65.60;;;;;;5116031;27;20118;-84
2023/05/20 01:10:11;;;;;;;6.35;2.92;;;16.00;65.70;;;;;;5116097;27;20433;-84
2023/05/20 01:12:46;;;;;;;7.50;2.70;;;16.00;65.80;;;;;;5133138;27;20023;-84
2023/05/20 01:15:14;;;;;;;6.95;2.85;;;16.00;65.90;;;;;;5132867;27;20019;-84
2023/05/20 01:17:44;;;;;;;6.43;2.97;;;16.00;66.10;;;;;;5133005;27;20019;-83
2023/05/20 01:20:12;;;;;;;7.43;3.05;;;16.00;66.30;;;;;;5134199;27;20011;-83
2023/05/20 01:22:45;;;;;;;6.15;2.72;;;16.00;66.40;;;;;;5099117;27;20031;-84
2023/05/20 01:25:11;;;;;;;7.43;3.10;;;16.00;66.30;;;;;;5132858;27;20461;-83
2023/05/20 01:27:37;;;;;;;9.82;3.47;;;15.90;66.50;;;;;;5115711;27;20029;-83
2023/05/20 01:30:03;;;;;;;7.10;2.83;;;15.90;66.70;;;;;;5098680;27;20050;-83
2023/05/20 01:32:36;;;;;;;8.23;3.33;;;15.80;67.10;;;;;;5132662;27;20027;-84
2023/05/20 01:35:04;;;;;;;5.50;3.30;;;15.80;67.10;;;;;;5133939;27;20029;-84
2023/05/20 01:37:31;;;;;;;6.47;3.22;;;15.80;67.30;;;;;;5115645;27;20110;-84
2023/05/20 01:39:57;;;;;;;4.35;2.85;;;15.80;67.50;;;;;;5132786;27;20399;-84
2023/05/20 01:42:26;;;;;;;7.03;2.92;;;15.70;67.40;;;;;;5132527;27;20146;-84
2023/05/20 01:44:51;;;;;;;4.88;2.72;;;15.80;67.50;;;;;;5132600;27;20028;-84
2023/05/20 01:47:17;;;;;;;5.10;2.65;;;15.70;67.50;;;;;;5115329;27;20100;-83
2023/05/20 01:49:45;;;;;;;9.23;3.42;;;15.70;67.70;;;;;;5098495;27;20024;-84
2023/05/20 01:52:11;;;;;;;6.03;3.15;;;15.60;67.90;;;;;;5115432;28;20099;-84
2023/05/20 01:54:37;;;;;;;6.07;3.55;;;15.60;68.10;;;;;;5115312;27;20019;-83
2023/05/20 01:57:02;;;;;;;5.72;3.25;;;15.60;68.30;;;;;;5115207;28;20032;-83
2023/05/20 01:59:28;;;;;;;5.70;2.92;;;15.60;68.60;;;;;;5132355;27;20079;-84
2023/05/20 02:01:54;;;;;;;5.50;3.03;;;15.50;69.60;;;;;;5098105;27;20028;-83
2023/05/20 02:04:21;;;;;;;5.07;2.80;;;15.60;69.00;;;;;;5115229;28;20023;-84
2023/05/20 02:06:47;;;;;;;5.63;3.17;;;15.60;68.90;;;;;;5132390;28;20023;-83
2023/05/20 02:09:13;;;;;;;7.43;3.25;;;15.60;69.00;;;;;;5115260;28;20064;-83
2023/05/20 02:11:38;;;;;;;7.80;3.20;;;15.60;69.20;;;;;;5133377;27;20088;-84
2023/05/20 02:14:05;;;;;;;6.35;3.45;;;15.50;69.20;;;;;;5098050;28;20028;-84
2023/05/20 02:16:30;;;;;;;6.82;3.00;;;15.50;69.30;;;;;;5132274;28;20028;-84
2023/05/20 02:18:57;;;;;;;5.93;3.13;;;15.50;69.20;;;;;;5114980;28;20114;-84
2023/05/20 02:21:23;;;;;;;8.32;3.50;;;15.60;69.20;;;;;;5098498;28;20426;-84
2023/05/20 02:23:49;;;;;;;5.82;3.90;;;15.60;69.20;;;;;;5132217;28;20024;-84
2023/05/20 02:26:15;;;;;;;5.65;3.15;;;15.50;69.50;;;;;;5098061;28;20049;-84
2023/05/20 02:28:45;;;;;;;5.45;3.15;;;15.50;69.60;;;;;;5098327;28;20023;-84
2023/05/20 02:31:11;;;;;;;6.45;3.65;;;15.50;69.50;;;;;;5132103;28;20052;-83
2023/05/20 02:33:37;;;;;;;5.75;3.30;;;15.50;69.70;;;;;;5098242;28;20023;-84
2023/05/20 02:36:03;;;;;;;7.95;3.40;;;15.40;69.70;;;;;;5132329;28;20034;-84
2023/05/20 02:38:30;;;;;;;6.07;3.13;;;15.40;69.90;;;;;;5132021;28;20106;-84
2023/05/20 02:40:57;;;;;;;7.65;3.45;;;15.30;70.00;;;;;;5132109;28;20057;-83
2023/05/20 02:43:23;;;;;;;6.72;3.35;;;15.30;70.10;;;;;;5115045;28;20034;-84
2023/05/20 02:45:49;;;;;;;5.68;3.38;;;15.30;70.20;;;;;;5132095;28;20039;-84
2023/05/20 02:48:15;;;;;;;7.97;3.50;;;15.40;70.50;;;;;;5131879;28;20023;-84
2023/05/20 02:50:40;;;;;;;5.75;3.17;;;15.30;70.60;;;;;;5097964;28;20384;-83
2023/05/20 02:53:06;;;;;;;7.00;3.20;;;15.30;70.50;;;;;;5114711;28;20024;-83
2023/05/20 02:55:35;;;;;;;6.07;3.60;;;15.20;70.60;;;;;;5115026;28;20031;-83
2023/05/20 02:58:01;;;;;;;6.10;3.00;;;15.20;70.90;;;;;;5114863;28;20080;-84
2023/05/20 03:00:29;;;;;;;5.15;3.50;;;15.20;70.90;;;;;;5133048;27;20019;-83
2023/05/20 03:02:55;;;;;;;6.97;3.60;;;15.20;71.10;;;;;;5131748;27;20036;-84
2023/05/20 03:05:21;;;;;;;7.13;3.30;;;15.10;71.30;;;;;;5131847;28;20035;-83
2023/05/20 03:07:47;;;;;;;8.38;3.58;;;15.10;71.50;;;;;;5114734;28;20476;-83
2023/05/20 03:10:13;;;;;;;5.68;3.22;;;15.10;71.60;;;;;;5131524;27;20039;-84
2023/05/20 03:12:39;;;;;;;7.47;3.45;;;15.10;71.80;;;;;;5132823;27;20122;-83
2023/05/20 03:15:06;;;;;;;6.55;3.47;;;15.10;71.80;;;;;;5118267;27;20102;-83
2023/05/20 03:17:31;;;;;;;6.70;3.13;;;15.00;71.90;;;;;;5136587;27;20544;-83
2023/05/20 03:19:57;;;;;;;8.38;3.75;;;15.00;71.90;;;;;;5118175;27;20053;-83
2023/05/20 03:22:23;;;;;;;6.20;3.45;;;15.00;72.10;;;;;;5135311;27;20034;-83
2023/05/20 03:24:48;;;;;;;8.18;3.55;;;15.00;72.00;;;;;;5118176;27;20080;-83
2023/05/20 03:27:14;;;;;;;8.23;3.40;;;15.00;72.10;;;;;;5101153;27;20024;-83
2023/05/20 03:29:40;;;;;;;5.72;3.63;;;15.00;72.10;;;;;;5101206;27;20035;-83
2023/05/20 03:32:06;;;;;;;6.88;3.55;;;15.00;72.20;;;;;;5134874;27;20031;-83
2023/05/20 03:34:32;;;;;;;7.22;3.20;;;15.00;72.20;;;;;;5118127;27;20084;-83
2023/05/20 03:36:59;;;;;;;8.05;3.50;;;15.00;72.40;;;;;;5118035;27;20023;-83
2023/05/20 03:39:24;;;;;;;5.93;3.28;;;15.00;72.50;;;;;;5101160;27;20022;-83
2023/05/20 03:41:50;;;;;;;6.18;3.30;;;14.90;72.60;;;;;;5117856;27;20086;-83
2023/05/20 03:44:16;;;;;;;6.45;3.65;;;14.90;72.60;;;;;;5117739;27;20053;-83
2023/05/20 03:46:41;;;;;;;8.18;3.90;;;14.90;72.90;;;;;;5100961;27;20511;-83
2023/05/20 03:49:07;;;;;;;6.45;3.67;;;14.90;73.10;;;;;;5134880;27;20033;-83
2023/05/20 03:51:33;;;;;;;8.45;3.88;;;14.80;73.30;;;;;;5117508;27;20023;-83
2023/05/20 03:53:58;;;;;;;8.07;3.42;;;14.80;73.50;;;;;;5117436;27;20076;-83
2023/05/20 03:56:25;;;;;;;8.30;3.85;;;14.80;73.60;;;;;;5100553;27;20019;-83
2023/05/20 03:58:51;;;;;;;7.22;3.70;;;14.70;73.60;;;;;;5100644;27;20058;-83
2023/05/20 04:01:16;;;;;;;5.35;3.53;;;14.70;73.80;;;;;;5100538;27;20054;-83
2023/05/20 04:03:42;;;;;;;6.25;3.88;;;14.70;73.80;;;;;;5100325;27;20027;-83
2023/05/20 04:06:08;;;;;;;6.53;3.47;;;14.70;74.10;;;;;;5134512;27;20033;-83
2023/05/20 04:08:35;;;;;;;7.72;3.60;;;14.70;74.30;;;;;;5134495;27;20027;-83
2023/05/20 04:11:02;;;;;;;6.55;3.50;;;14.60;74.30;;;;;;5117528;27;20458;-83
2023/05/20 04:13:28;;;;;;;6.78;3.45;;;14.70;74.30;;;;;;5134341;27;20047;-83
2023/05/20 04:15:54;;;;;;;8.38;3.47;;;14.60;74.30;;;;;;5117008;27;20059;-83
2023/05/20 04:18:19;;;;;;;7.63;3.60;;;14.70;74.50;;;;;;5100173;27;20031;-83
2023/05/20 04:20:45;;;;;;;7.28;3.67;;;14.70;74.40;;;;;;5100071;27;20019;-83
2023/05/20 04:23:11;;;;;;;6.50;3.58;;;14.70;74.50;;;;;;5100113;27;20472;-83
2023/05/20 04:25:37;;;;;;;7.95;4.15;;;14.70;74.70;;;;;;5134059;27;20031;-84
2023/05/20 04:28:03;;;;;;;5.95;3.30;;;14.70;74.70;;;;;;5099987;27;20076;-83
2023/05/20 04:30:32;;;;;;;7.35;3.50;;;14.70;74.80;;;;;;5133920;27;20031;-83
2023/05/20 04:32:58;;;;;;;8.38;3.55;;;14.70;74.70;;;;;;5133869;27;20027;-83
2023/05/20 04:35:24;;;;;;;8.38;3.38;;;14.80;74.80;;;;;;5133969;27;20023;-84
2023/05/20 04:37:52;;;;;;;4.20;3.17;;;14.70;74.80;;;;;;5116759;27;20088;-83
2023/05/20 04:40:18;;;;;;;5.07;3.45;;;14.70;74.90;;;;;;5133762;27;20019;-83
2023/05/20 04:42:44;;;;;;;6.82;3.42;;;14.70;75.00;;;;;;5099656;27;20031;-83
2023/05/20 04:45:11;;;;;;;6.85;3.35;;;14.70;75.00;;;;;;5116645;27;20108;-83
2023/05/20 04:47:37;;;;;;;6.65;3.53;;;14.70;75.20;;;;;;5134864;27;20479;-83
2023/05/20 04:50:09;;;;;;;7.68;3.42;;;14.70;75.00;;;;;;5116549;27;20027;-83
2023/05/20 04:52:36;;;;;;;7.30;3.60;;;14.80;75.00;;;;;;5134742;27;20024;-83
2023/05/20 04:55:02;;;;;;;8.05;3.67;;;14.80;74.90;;;;;;5116401;27;20020;-83
2023/05/20 04:57:28;;;;;;;10.45;3.97;;;14.80;75.00;;;;;;5116287;27;20024;-83
2023/05/20 04:59:57;;;;;;;7.20;3.67;;;14.90;75.20;;;;;;5133247;27;20536;-83
2023/05/20 05:02:23;;;;;;;6.10;3.08;;;14.90;75.10;;;;;;5100363;27;20484;-83
2023/05/20 05:04:49;;;;;;;6.65;3.33;;;14.90;75.10;;;;;;5099287;27;20495;-83
2023/05/20 05:07:15;;;;;;;6.75;3.42;;;14.90;75.30;;;;;;5116267;27;20027;-83
2023/05/20 05:09:40;;;;;;;6.78;3.20;;;14.90;75.20;;;;;;5099014;27;20050;-83
2023/05/20 05:12:06;;;;;;;6.95;3.47;;;14.90;75.10;;;;;;5098755;27;20514;-83
2023/05/20 05:14:32;;;;;;;5.78;3.08;;;14.90;75.20;;;;;;5099048;27;20057;-83
2023/05/20 05:16:57;;;;;;;8.25;3.47;;;14.90;75.30;;;;;;5115832;27;20034;-83
2023/05/20 05:19:23;;;;;;;8.40;3.88;;;14.90;75.20;;;;;;5099014;27;20126;-83
2023/05/20 05:21:49;;;;;;;6.90;3.35;;;14.90;75.80;;;;;;5132932;27;20023;-83
2023/05/20 05:24:14;;;;;;;5.00;3.30;;;14.90;75.50;;;;;;5132997;27;20492;-84
2023/05/20 05:26:40;;;;;;;6.07;3.63;;;14.90;75.60;;;;;;5098798;27;20118;-83
2023/05/20 05:29:05;;;;;;;7.40;3.33;;;15.00;75.70;;;;;;5079981;27;20567;-83
2023/05/20 05:31:31;;;;;;;7.28;3.15;;;14.90;75.70;;;;;;5114753;27;20046;-83
2023/05/20 05:33:57;;;;;;;9.25;3.63;;;14.90;75.60;;;;;;5132697;27;20034;-83
2023/05/20 05:36:24;;;;;;;5.22;3.53;;;14.90;75.30;;;;;;5097079;27;20031;-83
2023/05/20 05:38:50;;;;;;;5.60;3.45;;;15.00;75.60;;;;;;5115235;27;20047;-83
2023/05/20 05:41:15;;;;;;;5.82;3.45;;;14.90;75.70;;;;;;5097893;27;20096;-83
2023/05/20 05:43:41;;;;;;;5.57;3.08;;;15.00;75.50;;;;;;5113425;27;20027;-83
2023/05/20 05:46:08;;;;;;;6.57;3.63;;;15.00;75.70;;;;;;5114723;28;20031;-83
2023/05/20 05:48:35;;;;;;;5.45;3.45;;;14.90;75.80;;;;;;5098777;27;20026;-83
2023/05/20 05:51:00;;;;;;;6.38;3.53;;;15.00;76.00;;;;;;5115633;28;20019;-83
2023/05/20 05:53:26;;;;;;;6.43;3.67;;;14.90;76.20;;;;;;5132449;27;20425;-83
2023/05/20 05:55:52;;;;;;;8.48;3.80;;;15.00;76.00;;;;;;5132525;27;20024;-83
2023/05/20 05:58:17;;;;;;;6.28;3.53;;;15.00;75.80;;;;;;5115304;27;20464;-83
2023/05/20 06:00:43;;;;;;;5.70;3.47;;;15.10;75.70;;;;;;5115175;28;20034;-83
2023/05/20 06:03:09;;;;;;;5.20;3.33;;;15.10;77.30;;;;;;5098373;28;20041;-83
2023/05/20 06:05:35;;;;;;;5.03;3.30;;;15.10;76.00;;;;;;5132295;27;20117;-84
2023/05/20 06:08:01;;;;;;;5.22;3.35;;;15.10;76.10;;;;;;5133566;27;20020;-83
2023/05/20 06:10:27;;;;;;;5.65;3.33;;;15.20;76.10;;;;;;5132187;28;20099;-83
2023/05/20 06:12:53;;;;;;;7.07;3.88;;;15.20;76.00;;;;;;5132142;27;20118;-83
2023/05/20 06:15:18;;;;;;;5.53;3.60;;;15.20;76.20;;;;;;5098010;28;20043;-83
2023/05/20 06:17:44;;;;;;;5.95;3.15;;;15.30;76.10;;;;;;5115238;28;20023;-83
2023/05/20 06:20:10;;;;;;;8.02;3.58;;;15.30;76.30;;;;;;5115126;28;20108;-83
2023/05/20 06:22:36;;;;;;;7.60;3.55;;;15.40;76.20;;;;;;5132272;28;20039;-83
2023/05/20 06:25:02;;;;;;;5.78;3.55;;;15.50;75.90;;;;;;5115061;28;20026;-83
2023/05/20 06:27:27;;;;;;;5.65;3.53;;;15.50;76.00;;;;;;5131988;27;20084;-83
2023/05/20 06:29:53;;;;;;;8.10;3.65;;;15.60;75.90;;;;;;5115067;28;20028;-83
2023/05/20 06:32:19;;;;;;;5.60;3.40;;;15.60;75.60;;;;;;5132831;27;20038;-83
2023/05/20 06:34:44;;;;;;;4.50;3.20;;;15.60;75.80;;;;;;5132166;28;20035;-83
2023/05/20 06:37:10;;;;;;;6.68;3.47;;;15.70;75.40;;;;;;5097516;28;20032;-83
2023/05/20 06:39:36;;;;;;;6.07;3.75;;;15.70;75.40;;;;;;5114943;28;20024;-83
2023/05/20 06:42:02;;;;;;;6.85;3.90;;;15.80;75.40;;;;;;5133325;27;20468;-84
2023/05/20 06:44:28;;;;;;;4.78;3.50;;;15.80;75.30;;;;;;5098096;28;20020;-83
2023/05/20 06:46:54;;;;;;;6.13;3.60;;;15.80;75.00;;;;;;5131864;27;20176;-84
2023/05/20 06:49:19;;;;;;;6.53;3.08;;;15.80;74.90;;;;;;5137085;27;20019;-83
2023/05/20 06:51:45;;;;;;;4.70;3.33;;;15.90;74.80;;;;;;5118758;27;20118;-84
2023/05/20 06:54:10;;;;;;;5.85;3.35;;;16.00;74.60;;;;;;5135980;27;20020;-84
2023/05/20 06:56:36;;;;;;;6.47;3.50;;;16.00;74.90;;;;;;5135983;27;20031;-83
2023/05/20 06:59:02;;;;;;;5.72;3.63;;;16.10;74.90;;;;;;5135719;27;20018;-84
2023/05/20 07:01:27;;;;;;;5.55;3.60;;;16.10;74.50;;;;;;5118561;27;20137;-83
2023/05/20 07:03:53;;;;;;;6.75;3.38;;;16.10;74.60;;;;;;5118376;27;20027;-83
2023/05/20 07:06:19;;;;;;;6.40;3.13;;;16.20;74.30;;;;;;5101626;27;20042;-84
2023/05/20 07:08:44;;;;;;;4.30;3.10;;;16.30;74.40;;;;;;5101414;27;20537;-83
2023/05/20 07:11:10;;;;;;;5.57;3.42;;;16.30;73.70;;;;;;5118217;27;20134;-83
2023/05/20 07:13:36;;;;;;;5.28;3.30;;;16.40;73.50;;;;;;5100845;27;20041;-84
2023/05/20 07:16:02;;;;;;;5.20;3.33;;;16.40;73.60;;;;;;5134157;27;20076;-83
2023/05/20 07:18:28;;;;;;;5.30;2.97;;;16.40;73.40;;;;;;5117858;27;20429;-83
2023/05/20 07:20:55;;;;;;;5.10;2.75;;;16.50;73.60;;;;;;5117530;27;20068;-83
2023/05/20 07:23:21;;;;;;;4.55;3.22;;;16.60;73.70;;;;;;5117483;27;20122;-83
2023/05/20 07:25:48;;;;;;;5.78;3.33;;;16.70;73.70;;;;;;5117688;27;20365;-83
2023/05/20 07:28:15;;;;;;;4.15;2.92;;;16.70;73.40;;;;;;5118231;27;20057;-84
2023/05/20 07:30:41;;;;;;;4.68;3.28;;;16.80;72.90;;;;;;5117968;27;20488;-84
2023/05/20 07:33:06;;;;;;;4.50;3.20;;;16.90;72.90;;;;;;5134889;27;20056;-83
2023/05/20 07:35:32;;;;;;;5.88;2.92;;;17.00;73.20;;;;;;5135208;27;20031;-84
2023/05/20 07:37:58;;;;;;;5.85;3.20;;;17.00;71.90;;;;;;5134883;27;20042;-83
2023/05/20 07:40:23;;;;;;;6.72;3.65;;;17.10;71.90;;;;;;5117886;27;20102;-83
2023/05/20 07:42:49;;;;;;;5.93;3.13;;;17.10;71.80;;;;;;5134861;27;20120;-84
2023/05/20 07:45:14;;;;;;;5.75;3.33;;;17.20;71.60;;;;;;5117776;27;20385;-84
2023/05/20 07:47:40;;;;;;;5.10;3.00;;;17.20;71.00;;;;;;5100670;27;20110;-84
2023/05/20 07:50:06;;;;;;;5.53;3.50;;;17.30;70.80;;;;;;5117747;27;20068;-84
2023/05/20 07:52:32;;;;;;;6.20;3.28;;;17.30;70.10;;;;;;5134395;27;20096;-84
2023/05/20 07:54:57;;;;;;;4.60;3.20;;;17.40;70.50;;;;;;5134515;27;20020;-83
2023/05/20 07:57:23;;;;;;;4.97;3.45;;;17.50;70.10;;;;;;5100545;27;20104;-84
2023/05/20 07:59:48;;;;;;;8.07;2.85;;;17.50;69.70;;;;;;5134071;27;20026;-84
2023/05/20 08:02:14;;;;;;;5.20;3.10;;;17.60;69.60;;;;;;5117432;27;20027;-84
2023/05/20 08:04:40;;;;;;;5.63;3.05;;;17.60;69.20;;;;;;5117350;27;20410;-84
2023/05/20 08:07:06;;;;;;;5.88;3.30;;;17.70;69.30;;;;;;5117351;27;20062;-84
2023/05/20 08:09:33;;;;;;;5.82;3.25;;;17.80;68.70;;;;;;5100275;27;20031;-84
2023/05/20 08:11:59;;;;;;;6.78;3.22;;;17.80;67.90;;;;;;5134091;27;20050;-84
2023/05/20 08:14:24;;;;;;;3.97;2.75;;;17.90;67.50;;;;;;5100283;27;20023;-83
2023/05/20 08:16:50;;;;;;;5.75;3.33;;;17.90;67.60;;;;;;5117174;27;20024;-84
2023/05/20 08:19:16;;;;;;;5.60;3.50;;;18.00;67.40;;;;;;5134267;27;20031;-83
2023/05/20 08:21:41;;;;;;;4.25;2.70;;;18.00;67.20;;;;;;5100122;27;20471;-85
2023/05/20 08:24:07;;;;;;;4.03;2.65;;;18.10;67.40;;;;;;5117158;27;20043;-85
2023/05/20 08:26:32;;;;;;;5.78;2.92;;;18.10;66.80;;;;;;5134263;27;20070;-85
2023/05/20 08:28:58;;;;;;;4.68;2.92;;;18.20;66.20;;;;;;5134271;27;20034;-85
2023/05/20 08:31:24;;;;;;;5.03;2.90;;;18.30;66.70;;;;;;5099988;27;20430;-85
2023/05/20 08:33:50;;;;;;;3.80;2.47;;;18.30;66.80;;;;;;5116819;27;20024;-85
2023/05/20 08:36:15;;;;;;;4.75;2.60;;;18.40;65.90;;;;;;5116813;27;20052;-85
2023/05/20 08:38:41;;;;;;;4.65;2.45;;;18.40;65.90;;;;;;5116612;27;20641;-85
2023/05/20 08:41:07;;;;;;;5.20;2.70;;;18.40;64.80;;;;;;5116711;27;20467;-85
2023/05/20 08:43:33;;;;;;;4.38;2.50;;;18.50;63.90;;;;;;5116499;27;20019;-85
2023/05/20 08:46:01;;;;;;;3.53;2.70;;;18.50;65.10;;;;;;5116624;27;20032;-84
2023/05/20 08:48:28;;;;;;;4.38;2.72;;;18.50;64.70;;;;;;5133632;27;20514;-85
2023/05/20 08:50:57;;;;;;;3.70;2.50;;;18.60;65.50;;;;;;5116334;27;20087;-84
2023/05/20 08:53:22;;;;;;;7.25;2.90;;;18.60;65.20;;;;;;5133347;27;20034;-85
2023/05/20 08:56:01;;;;;;;3.88;2.90;;;18.70;65.00;;;;;;5115308;27;20023;-85
2023/05/20 08:58:31;;;;;;;5.70;2.70;;;18.70;64.20;;;;;;5116793;27;20384;-85
2023/05/20 09:01:00;;;;;;;3.60;2.63;;;18.80;64.50;;;;;;5133286;27;20110;-84
2023/05/20 09:03:26;;;;;;;5.88;2.47;;;18.80;63.80;;;;;;5132420;27;20031;-85
2023/05/20 09:05:53;;;;;;;4.70;2.60;;;18.90;64.30;;;;;;5132615;27;20023;-85
2023/05/20 09:08:24;;;;;;;4.43;2.80;;;19.00;64.70;;;;;;5134137;27;20420;-85
2023/05/20 09:10:51;;;;;;;7.40;2.90;;;19.00;62.80;;;;;;5132464;27;20130;-85
2023/05/20 09:13:17;;;;;;;6.45;2.50;;;19.00;62.10;;;;;;5133115;27;20106;-85
2023/05/20 09:15:42;;;;;;;7.13;2.50;;;18.90;63.60;;;;;;5099021;27;20065;-85
2023/05/20 09:18:08;;;;;;;4.30;2.88;;;18.90;63.20;;;;;;5098991;27;20096;-87
2023/05/20 09:20:36;;;;;;;4.57;2.40;;;19.00;63.60;;;;;;5115952;27;20031;-85
2023/05/20 09:23:04;;;;;;;5.05;2.67;;;19.10;63.50;;;;;;5132952;27;20036;-85
2023/05/20 09:25:30;;;;;;;5.15;2.50;;;19.20;63.30;;;;;;5132984;27;20051;-85
2023/05/20 09:27:56;;;;;;;3.70;1.98;;;19.20;62.00;;;;;;5115873;27;20107;-85
2023/05/20 09:30:22;;;;;;;3.72;2.30;;;19.20;61.60;;;;;;5134072;27;20031;-85
2023/05/20 09:32:56;;;;;;;3.55;2.08;;;19.30;62.70;;;;;;5115476;27;20425;-85
2023/05/20 09:35:22;;;;;;;3.72;2.22;;;19.40;61.90;;;;;;5115913;27;20033;-85
2023/05/20 09:37:54;;;;;;;3.10;2.20;;;19.50;61.50;;;;;;5132730;27;20024;-85
2023/05/20 09:40:25;;;;;;;3.65;2.53;;;19.50;62.10;;;;;;5133929;27;20065;-85
2023/05/20 09:42:55;;;;;;;3.75;1.80;;;19.60;60.70;;;;;;5115839;27;20036;-85
2023/05/20 09:45:21;;;;;;;3.58;2.00;;;19.70;61.60;;;;;;5133870;27;20042;-85
2023/05/20 09:47:52;;;;;;;2.72;1.92;;;19.80;61.30;;;;;;5115559;28;20114;-85
2023/05/20 09:50:20;;;;;;;5.95;2.30;;;19.90;60.40;;;;;;5134284;27;20472;-85
2023/05/20 09:52:47;;;;;;;3.30;2.13;;;20.00;60.90;;;;;;5115691;27;20365;-85
2023/05/20 09:55:14;;;;;;;3.33;2.30;;;20.00;60.60;;;;;;5133890;27;20026;-85
2023/05/20 09:57:39;;;;;;;4.07;2.20;;;20.10;60.00;;;;;;5132412;27;20372;-85
2023/05/20 10:00:07;;;;;;;4.53;2.85;;;20.20;60.10;;;;;;5132675;27;20020;-85
2023/05/20 10:02:34;;;;;;;4.57;2.53;;;20.20;59.30;;;;;;5132296;27;20023;-85
2023/05/20 10:05:06;;;;;;;3.47;2.28;;;20.20;60.10;;;;;;5098427;27;20594;-85
2023/05/20 10:07:35;;;;;;;4.90;2.30;;;20.10;59.10;;;;;;5132226;27;20015;-85
2023/05/20 10:10:33;;;;;;;4.80;2.05;;;20.20;59.60;;;;;;5133447;28;20034;-85
2023/05/20 10:13:14;;;;;;;4.30;2.40;;;20.30;59.30;;;;;;5133431;28;20027;-85
2023/05/20 10:16:05;;;;;;;4.10;2.30;;;20.40;59.40;;;;;;5133362;28;20054;-85
2023/05/20 10:18:30;;;;;;;3.80;1.98;;;20.40;59.10;;;;;;5133393;27;20023;-85
2023/05/20 10:20:56;;;;;;;4.97;2.60;;;20.50;59.50;;;;;;5133450;27;20033;-85
2023/05/20 10:23:23;;;;;;;3.47;1.95;;;20.50;58.60;;;;;;5136347;27;20051;-85
2023/05/20 10:25:53;;;;;;;3.83;2.28;;;20.60;58.80;;;;;;5102297;27;20035;-85
2023/05/20 10:28:39;;;;;;;4.50;2.83;;;20.70;58.90;;;;;;5136321;27;20121;-85
2023/05/20 10:31:22;;;;;;;3.53;2.33;;;20.80;57.40;;;;;;5136206;27;20019;-85
2023/05/20 10:33:51;;;;;;;3.10;2.15;;;20.70;57.00;;;;;;5137514;27;20391;-85
2023/05/20 10:36:25;;;;;;;5.32;2.03;;;20.60;57.20;;;;;;5136198;27;20023;-85
2023/05/20 10:38:56;;;;;;;3.80;2.00;;;20.70;57.50;;;;;;5136089;27;20019;-85
2023/05/20 10:41:25;;;;;;;4.68;2.22;;;20.80;57.70;;;;;;5137241;27;20051;-85
2023/05/20 10:44:04;;;;;;;3.53;2.17;;;20.90;57.40;;;;;;5136185;27;20076;-85
2023/05/20 10:46:31;;;;;;;3.83;2.20;;;20.90;55.90;;;;;;5119015;27;20041;-85
2023/05/20 10:48:57;;;;;;;3.45;2.08;;;20.80;56.00;;;;;;5135971;27;20098;-85
2023/05/20 10:51:24;;;;;;;3.47;2.50;;;20.90;56.00;;;;;;5135956;27;20023;-85
2023/05/20 10:53:54;;;;;;;4.97;2.30;;;20.90;57.30;;;;;;5136687;27;20058;-85
2023/05/20 10:56:22;;;;;;;5.05;2.53;;;21.00;56.60;;;;;;5135646;27;20114;-85
2023/05/20 10:58:48;;;;;;;3.75;2.03;;;21.00;56.70;;;;;;5135812;27;20053;-85
2023/05/20 11:01:15;;;;;;;3.97;2.33;;;20.90;57.00;;;;;;5135794;27;20061;-85
2023/05/20 11:03:42;;;;;;;3.05;2.20;;;20.90;56.90;;;;;;5136884;27;20031;-85
2023/05/20 11:06:17;;;;;;;4.75;2.10;;;20.90;55.90;;;;;;5135588;27;20015;-85
2023/05/20 11:08:44;;;;;;;3.05;2.20;;;20.90;56.50;;;;;;5135697;27;20106;-85
2023/05/20 11:11:11;;;;;;;3.20;2.10;;;20.80;55.90;;;;;;5101546;27;20035;-85
2023/05/20 11:13:37;;;;;;;4.15;2.20;;;20.70;55.60;;;;;;5135591;27;20024;-85
2023/05/20 11:16:03;;;;;;;2.50;1.70;;;20.70;56.00;;;;;;5135329;27;20038;-85
2023/05/20 11:18:30;;;;;;;3.83;2.20;;;20.70;57.00;;;;;;5135367;27;20347;-85
2023/05/20 11:20:57;;;;;;;2.72;1.63;;;20.80;56.60;;;;;;5135399;27;20030;-85
2023/05/20 11:23:25;;;;;;;2.80;2.13;;;20.70;56.00;;;;;;5135303;27;20023;-85
2023/05/20 11:25:51;;;;;;;2.97;2.20;;;20.80;57.40;;;;;;5135556;27;20029;-85
2023/05/20 11:28:20;;;;;;;2.72;1.67;;;21.00;58.30;;;;;;5118285;27;20035;-85
2023/05/20 11:30:46;;;;;;;2.97;1.70;;;21.00;57.30;;;;;;5135258;27;20027;-85
2023/05/20 11:33:14;;;;;;;2.70;2.13;;;21.10;57.10;;;;;;5135598;27;20027;-85
2023/05/20 11:35:51;;;;;;;3.58;1.90;;;21.00;56.90;;;;;;5135120;27;20045;-85
2023/05/20 11:38:18;;;;;;;3.92;2.47;;;21.10;56.70;;;;;;5135368;27;20068;-86
2023/05/20 11:40:54;;;;;;;6.07;2.47;;;21.00;56.40;;;;;;5100819;27;20023;-85
2023/05/20 11:43:22;;;;;;;3.13;2.35;;;20.90;56.20;;;;;;5117713;27;20023;-85
2023/05/20 11:45:58;;;;;;;4.03;2.08;;;20.90;58.30;;;;;;5118220;27;20042;-86
2023/05/20 11:48:24;;;;;;;3.92;2.22;;;20.90;56.50;;;;;;5134825;27;20395;-85
2023/05/20 11:50:52;;;;;;;3.17;2.00;;;20.90;57.40;;;;;;5134699;27;20034;-85
2023/05/20 11:53:22;;;;;;;3.92;2.17;;;20.90;57.20;;;;;;5134584;27;20080;-85
2023/05/20 11:55:50;;;;;;;2.83;2.00;;;21.00;57.50;;;;;;5134635;27;20019;-85
2023/05/20 11:58:18;;;;;;;3.70;2.10;;;21.10;57.20;;;;;;5135799;27;20019;-85
2023/05/20 12:00:44;;;;;;;2.95;2.22;;;21.20;58.00;;;;;;5134614;27;20019;-85
2023/05/20 12:03:10;;;;;;;3.85;2.00;;;21.30;55.50;;;;;;5117589;27;20028;-85
2023/05/20 12:05:36;;;;;;;7.53;2.58;;;21.20;56.20;;;;;;5100690;27;20028;-85
2023/05/20 12:08:02;;;;;;;3.70;2.20;;;21.10;55.00;;;;;;5100499;27;20035;-85
2023/05/20 12:10:28;;;;;;;3.38;2.30;;;21.00;57.00;;;;;;5134299;27;20560;-84
2023/05/20 12:12:54;;;;;;;2.95;2.20;;;21.00;56.80;;;;;;5134453;27;20063;-85
2023/05/20 12:15:19;;;;;;;3.70;2.08;;;20.90;56.20;;;;;;5134140;27;20107;-85
2023/05/20 12:17:54;;;;;;;2.58;1.83;;;20.90;57.40;;;;;;5134334;27;20387;-85
2023/05/20 12:20:24;;;;;;;4.20;2.20;;;21.00;57.80;;;;;;5134360;27;20419;-86
2023/05/20 12:22:50;;;;;;;6.38;2.13;;;21.20;59.10;;;;;;5134190;27;20113;-85
2023/05/20 12:25:18;;;;;;;3.17;1.95;;;21.20;57.60;;;;;;5117020;27;20114;-85
2023/05/20 12:27:47;;;;;;;3.33;2.22;;;21.30;57.70;;;;;;5134056;27;20551;-85
2023/05/20 12:30:17;;;;;;;3.00;2.05;;;21.40;57.30;;;;;;5135266;27;20531;-85
2023/05/20 12:32:44;;;;;;;3.33;1.90;;;21.40;56.90;;;;;;5133694;27;20110;-85
2023/05/20 12:35:10;;;;;;;4.05;2.13;;;21.40;57.20;;;;;;5116770;27;20080;-85
2023/05/20 12:37:40;;;;;;;3.97;2.03;;;21.60;57.80;;;;;;5133802;27;20027;-85
2023/05/20 12:40:07;;;;;;;3.20;2.08;;;21.80;57.90;;;;;;5133890;27;20039;-85
2023/05/20 12:42:43;;;;;;;1.63;1.40;;;21.90;57.20;;;;;;5116679;27;20031;-86
2023/05/20 12:45:12;;;;;;;2.30;1.88;;;22.00;56.80;;;;;;5132543;27;20023;-85
2023/05/20 12:47:37;;;;;;;3.78;1.77;;;22.10;56.00;;;;;;5098888;27;20079;-85